Time;durP1;ratioP1;P1;durP2;ratioP2;P2;SDS_P1;SDS_P2;PMS_P1;PMS_P2;Temp;Humidity;BMP_temperature;BMP_pressure;BME280_temperature;BME280_humidity;BME280_pressure;Samples;Min_cycle;Max_cycle;Signal;HPM_P1;HPM_P2
2022/06/25 00:02:22;;;;;;;4.07;3.65;;;;;;;23.71;54.34;94489.03;4922981;29;20199;-77
2022/06/25 00:07:33;;;;;;;5.38;4.00;;;;;;;23.68;54.44;94483.44;4921943;29;20264;-76
2022/06/25 00:10:00;;;;;;;4.95;4.03;;;;;;;23.65;54.73;94482.06;4913460;29;20659;-82
2022/06/25 00:12:33;;;;;;;4.68;4.18;;;;;;;23.63;54.71;94465.81;4899438;29;20236;-85
2022/06/25 00:15:00;;;;;;;6.40;4.50;;;;;;;23.63;54.79;94468.41;4899049;29;20207;-82
2022/06/25 00:17:27;;;;;;;7.55;3.90;;;;;;;23.61;55.01;94467.03;4898663;29;20197;-84
2022/06/25 00:19:54;;;;;;;3.95;3.63;;;;;;;23.59;54.97;94458.66;4898862;29;20236;-79
2022/06/25 00:22:21;;;;;;;5.03;4.00;;;;;;;23.57;54.98;94464.06;4899078;29;20600;-77
2022/06/25 00:24:48;;;;;;;6.03;4.10;;;;;;;23.55;54.83;94468.72;4899435;29;20711;-85
2022/06/25 00:27:15;;;;;;;7.70;4.00;;;;;;;23.54;54.90;94464.53;4898571;29;20696;-85
2022/06/25 00:29:43;;;;;;;4.50;4.10;;;;;;;23.42;55.20;94454.06;4898600;29;20192;-85
2022/06/25 00:32:10;;;;;;;4.20;3.80;;;;;;;23.49;55.35;94470.44;4898848;29;20611;-84
2022/06/25 00:34:38;;;;;;;5.15;4.40;;;;;;;23.46;55.42;94473.47;4898637;29;20201;-78
2022/06/25 00:37:05;;;;;;;5.93;4.53;;;;;;;23.45;55.39;94469.28;4898393;29;20819;-85
2022/06/25 00:39:32;;;;;;;5.13;4.30;;;;;;;23.45;55.61;94473.72;4898938;29;20197;-83
2022/06/25 00:41:59;;;;;;;7.72;6.32;;;;;;;23.43;55.56;94465.28;4898534;29;20580;-80
2022/06/25 00:44:29;;;;;;;6.15;5.55;;;;;;;23.42;55.35;94461.91;4897890;29;20212;-85
2022/06/25 00:46:57;;;;;;;7.72;6.20;;;;;;;23.41;55.62;94455.09;4899388;29;20223;-85
2022/06/25 00:49:24;;;;;;;8.23;6.10;;;;;;;23.40;55.53;94447.47;4899498;29;20204;-84
2022/06/25 00:51:52;;;;;;;8.93;7.13;;;;;;;23.38;55.52;94449.50;4899106;29;20192;-84
2022/06/25 00:54:21;;;;;;;10.45;6.93;;;;;;;23.35;55.67;94449.94;4899732;29;20199;-85
2022/06/25 00:56:50;;;;;;;7.93;6.82;;;;;;;23.34;55.94;94458.81;4898552;29;20185;-83
2022/06/25 00:59:24;;;;;;;9.70;6.28;;;;;;;23.31;55.93;94456.63;4897943;29;20192;-84
2022/06/25 01:01:51;;;;;;;6.75;6.05;;;;;;;23.30;55.99;94468.88;4897936;29;20196;-84
2022/06/25 01:04:20;;;;;;;8.85;6.63;;;;;;;23.29;55.90;94462.06;4897873;29;20207;-84
2022/06/25 01:06:47;;;;;;;9.50;6.05;;;;;;;23.28;56.00;94452.66;4897946;29;20591;-83
2022/06/25 01:09:14;;;;;;;6.97;6.03;;;;;;;23.24;55.83;94456.75;4896954;29;20216;-84
2022/06/25 01:11:41;;;;;;;12.57;5.20;;;;;;;23.26;56.13;94465.13;4897539;29;20569;-82
2022/06/25 01:14:09;;;;;;;6.38;4.70;;;;;;;23.18;56.14;94452.38;4897488;29;20239;-85
2022/06/25 01:16:36;;;;;;;9.45;5.47;;;;;;;23.18;55.85;94462.81;4897517;29;20212;-86
2022/06/25 01:19:08;;;;;;;7.90;4.53;;;;;;;23.22;56.13;94467.38;4897230;29;20200;-82
2022/06/25 01:21:37;;;;;;;6.85;4.78;;;;;;;23.16;56.11;94457.84;4897433;29;20248;-84
2022/06/25 01:24:07;;;;;;;5.60;4.80;;;;;;;23.18;56.00;94465.44;4897305;29;20252;-84
2022/06/25 01:26:35;;;;;;;5.32;4.68;;;;;;;23.18;56.18;94462.81;4897289;29;20208;-85
2022/06/25 01:29:03;;;;;;;6.88;4.43;;;;;;;23.16;56.17;94460.44;4897227;29;20740;-77
2022/06/25 01:31:29;;;;;;;6.38;4.40;;;;;;;22.99;56.02;94433.38;4897359;29;20283;-82
2022/06/25 01:33:56;;;;;;;6.95;4.50;;;;;;;23.15;56.17;94458.06;4897459;29;20228;-84
2022/06/25 01:36:23;;;;;;;5.13;4.20;;;;;;;23.14;56.03;94454.63;4880847;29;20212;-84
2022/06/25 01:38:50;;;;;;;4.07;3.78;;;;;;;23.11;56.45;94456.91;4896943;29;20861;-83
2022/06/25 01:41:20;;;;;;;3.95;3.65;;;;;;;23.14;56.37;94461.66;4897876;29;20569;-85
2022/06/25 01:43:47;;;;;;;4.35;3.95;;;;;;;23.10;56.20;94466.56;4897651;29;20207;-80
2022/06/25 01:46:15;;;;;;;5.50;3.65;;;;;;;23.06;56.56;94456.75;4897601;29;20200;-84
2022/06/25 01:48:43;;;;;;;4.22;3.83;;;;;;;23.08;56.51;94457.34;4897539;29;20204;-80
2022/06/25 01:51:10;;;;;;;4.10;3.70;;;;;;;23.09;56.34;94469.38;4897493;29;20192;-84
2022/06/25 01:53:36;;;;;;;4.05;3.63;;;;;;;23.06;56.44;94462.78;4897191;29;20216;-84
2022/06/25 01:56:04;;;;;;;8.80;4.10;;;;;;;23.07;56.68;94469.59;4897274;29;20200;-78
2022/06/25 01:58:32;;;;;;;4.55;4.10;;;;;;;23.03;56.72;94474.44;4897584;29;20189;-84
2022/06/25 02:00:59;;;;;;;4.97;4.47;;;;;;;23.02;57.00;94470.25;4897307;29;20195;-85
2022/06/25 02:03:26;;;;;;;7.65;4.05;;;;;;;23.00;57.15;94484.53;4897143;29;20196;-84
2022/06/25 02:05:59;;;;;;;6.40;4.63;;;;;;;23.00;57.14;94489.75;4896525;29;20197;-85
2022/06/25 02:08:28;;;;;;;5.65;4.18;;;;;;;22.98;57.11;94492.56;4896957;29;20192;-84
2022/06/25 02:10:55;;;;;;;8.45;4.10;;;;;;;22.98;57.11;94500.41;4897112;29;20199;-85
2022/06/25 02:13:23;;;;;;;6.43;4.80;;;;;;;22.97;57.21;94492.78;4897069;29;20689;-84
2022/06/25 02:15:51;;;;;;;5.00;4.13;;;;;;;22.96;57.34;94489.38;4896653;29;20624;-84
2022/06/25 02:18:19;;;;;;;6.47;4.50;;;;;;;22.98;57.32;94481.34;4896925;29;20200;-84
2022/06/25 02:20:46;;;;;;;6.15;4.13;;;;;;;22.97;57.40;94477.94;4895552;29;20232;-79
2022/06/25 02:23:15;;;;;;;4.85;4.07;;;;;;;22.88;57.44;94460.16;4896455;29;20260;-85
2022/06/25 02:25:42;;;;;;;6.28;4.13;;;;;;;22.96;57.55;94480.75;4896908;29;20203;-83
2022/06/25 02:28:09;;;;;;;6.55;4.10;;;;;;;22.96;57.55;94485.97;4896742;29;20200;-81
2022/06/25 02:30:36;;;;;;;7.78;4.28;;;;;;;22.95;57.56;94487.78;4896759;29;20633;-83
2022/06/25 02:33:09;;;;;;;6.30;4.10;;;;;;;22.96;57.72;94485.97;4896347;29;20231;-84
2022/06/25 02:35:35;;;;;;;5.22;4.25;;;;;;;22.94;58.00;94494.03;4896011;29;20200;-83
2022/06/25 02:38:02;;;;;;;4.20;3.80;;;;;;;22.94;58.16;94496.63;4896945;29;20192;-78
2022/06/25 02:40:29;;;;;;;7.07;4.80;;;;;;;22.94;57.79;94514.91;4897015;29;20259;-84
2022/06/25 02:42:56;;;;;;;6.90;4.07;;;;;;;22.93;57.96;94518.53;4896308;29;20208;-84
2022/06/25 02:45:24;;;;;;;4.95;4.45;;;;;;;22.93;58.18;94512.53;4896532;29;20192;-80
2022/06/25 02:47:51;;;;;;;6.43;4.70;;;;;;;22.91;57.86;94499.69;4895665;29;20196;-78
2022/06/25 02:50:20;;;;;;;5.45;4.40;;;;;;;22.92;58.03;94505.69;4895930;29;20704;-84
2022/06/25 02:52:47;;;;;;;4.82;4.32;;;;;;;22.92;58.06;94497.84;4896244;29;20188;-82
2022/06/25 02:55:13;;;;;;;4.50;4.10;;;;;;;22.86;58.17;94491.69;4896359;29;20191;-85
2022/06/25 03:00:25;;;;;;;4.57;4.07;;;;;;;22.92;58.26;94501.25;4896521;29;20789;-84
2022/06/25 03:02:52;;;;;;;8.20;4.18;;;;;;;22.92;58.25;94488.22;4895716;29;20287;-83
2022/06/25 03:05:20;;;;;;;10.45;4.68;;;;;;;22.94;58.25;94494.03;4896220;29;20204;-84
2022/06/25 03:07:47;;;;;;;4.43;4.03;;;;;;;22.95;58.27;94487.78;4895988;29;20199;-84
2022/06/25 03:10:14;;;;;;;8.10;4.30;;;;;;;22.99;58.23;94493.38;4896510;29;20196;-84
2022/06/25 03:12:41;;;;;;;7.22;4.20;;;;;;;23.01;58.37;94491.31;4896066;29;20200;-85
2022/06/25 03:15:08;;;;;;;8.75;4.90;;;;;;;23.01;58.22;94493.94;4895727;29;20184;-83
2022/06/25 03:17:35;;;;;;;5.50;4.07;;;;;;;23.07;58.20;94500.91;4895812;29;20597;-84
2022/06/25 03:20:02;;;;;;;5.05;4.65;;;;;;;23.10;58.32;94497.03;4896023;29;20239;-84
2022/06/25 03:22:30;;;;;;;6.32;4.32;;;;;;;23.14;57.92;94503.41;4896279;29;20226;-84
2022/06/25 03:24:57;;;;;;;6.97;4.50;;;;;;;23.09;58.11;94498.84;4896286;29;20193;-84
2022/06/25 03:27:24;;;;;;;6.78;4.22;;;;;;;23.23;58.27;94496.91;4895882;29;20573;-85
2022/06/25 03:29:51;;;;;;;8.18;4.35;;;;;;;23.29;58.11;94498.63;4895365;29;20185;-84
2022/06/25 03:32:18;;;;;;;5.63;4.63;;;;;;;23.36;57.99;94498.50;4897019;29;20256;-85
2022/06/25 03:34:45;;;;;;;4.97;3.90;;;;;;;23.42;57.92;94492.41;4902051;29;20231;-84
2022/06/25 03:37:12;;;;;;;7.32;4.22;;;;;;;23.47;58.04;94492.53;4902254;29;20282;-86
2022/06/25 03:39:42;;;;;;;6.05;4.28;;;;;;;23.51;57.91;94489.25;4901951;29;20227;-84
2022/06/25 03:42:09;;;;;;;6.93;4.22;;;;;;;23.56;57.97;94485.19;4901801;29;20196;-86
2022/06/25 03:44:36;;;;;;;5.28;4.25;;;;;;;23.61;58.00;94485.31;4901718;29;20204;-84
2022/06/25 03:47:04;;;;;;;8.20;5.18;;;;;;;23.63;57.95;94489.31;4902059;29;20209;-85
2022/06/25 03:49:31;;;;;;;6.38;3.80;;;;;;;23.64;58.40;94490.09;4901462;29;20287;-85
2022/06/25 03:51:57;;;;;;;8.10;4.25;;;;;;;23.63;58.21;94478.06;4902027;29;20191;-85
2022/06/25 03:54:24;;;;;;;7.43;4.05;;;;;;;23.66;58.29;94488.06;4901592;29;20216;-84
2022/06/25 03:56:52;;;;;;;4.65;4.20;;;;;;;23.66;58.42;94486.28;4901936;29;20192;-85
2022/06/25 03:59:19;;;;;;;6.45;4.63;;;;;;;23.65;58.43;94479.44;4901853;29;20204;-85
2022/06/25 04:01:46;;;;;;;4.40;4.05;;;;;;;23.66;58.42;94472.41;4901930;29;20207;-81
2022/06/25 04:04:14;;;;;;;7.07;4.28;;;;;;;23.66;58.23;94472.41;4901833;29;20226;-84
2022/06/25 04:06:41;;;;;;;7.22;4.43;;;;;;;23.67;58.23;94468.81;4901397;29;20200;-84
2022/06/25 04:09:08;;;;;;;6.30;4.28;;;;;;;23.70;58.32;94481.38;4901564;29;20200;-83
2022/06/25 04:11:34;;;;;;;7.22;4.30;;;;;;;23.72;58.24;94480.16;4901245;29;20185;-85
2022/06/25 04:14:03;;;;;;;4.88;4.38;;;;;;;23.82;58.44;94494.47;4901685;29;20220;-80
2022/06/25 04:16:30;;;;;;;5.10;4.60;;;;;;;23.79;58.42;94493.09;4901399;29;20192;-83
2022/06/25 04:18:57;;;;;;;4.75;4.30;;;;;;;23.92;58.28;94502.53;4901330;29;20223;-84
2022/06/25 04:21:24;;;;;;;4.60;4.20;;;;;;;23.97;58.45;94498.25;4901258;29;20718;-81
2022/06/25 04:23:51;;;;;;;5.47;4.47;;;;;;;24.04;58.09;94504.16;4901743;29;20261;-84
2022/06/25 04:26:18;;;;;;;8.90;4.35;;;;;;;24.10;58.23;94505.09;4901741;29;20200;-81
2022/06/25 04:31:31;;;;;;;7.88;4.93;;;;;;;24.07;58.10;94484.63;4901424;29;20478;-81
2022/06/25 04:33:58;;;;;;;6.35;4.53;;;;;;;24.32;57.80;94501.91;4901395;29;20228;-84
2022/06/25 04:36:27;;;;;;;5.88;4.47;;;;;;;24.41;57.72;94501.38;4901151;29;20204;-85
2022/06/25 04:38:54;;;;;;;12.30;4.97;;;;;;;24.51;57.25;94498.19;4901191;29;20196;-85
2022/06/25 04:41:21;;;;;;;9.48;5.03;;;;;;;24.55;57.08;94491.47;4901291;29;20208;-82
2022/06/25 04:43:48;;;;;;;5.88;4.40;;;;;;;24.66;57.14;94506.34;4900154;29;20207;-84
2022/06/25 04:46:15;;;;;;;4.72;4.28;;;;;;;24.74;56.74;94513.84;4897925;29;20189;-84
2022/06/25 04:48:43;;;;;;;4.32;3.88;;;;;;;24.89;56.59;94513.38;4898382;29;20204;-86
2022/06/25 04:51:10;;;;;;;6.07;3.90;;;;;;;25.03;56.36;94516.50;4898146;29;20207;-84
2022/06/25 04:53:55;;;;;;;5.80;4.28;;;;;;;25.17;56.19;94515.28;4898391;29;20620;-79
2022/06/25 04:56:23;;;;;;;4.88;4.47;;;;;;;25.27;56.17;94512.84;4898199;29;20215;-83
2022/06/25 04:58:50;;;;;;;5.68;4.80;;;;;;;25.38;55.65;94518.25;4898294;29;20200;-83
2022/06/25 05:01:17;;;;;;;8.75;4.88;;;;;;;25.39;55.70;94509.34;4898163;29;20224;-86
2022/06/25 05:03:46;;;;;;;4.97;4.22;;;;;;;25.55;55.51;94521.69;4898165;29;20200;-87
2022/06/25 05:06:13;;;;;;;7.10;4.80;;;;;;;25.65;55.16;94521.13;4897892;29;20256;-87
2022/06/25 05:08:40;;;;;;;4.55;4.15;;;;;;;25.84;55.32;94529.56;4898055;29;20193;-85
2022/06/25 05:11:07;;;;;;;7.40;4.50;;;;;;;26.04;54.97;94527.31;4898396;29;20207;-85
2022/06/25 05:13:34;;;;;;;6.75;4.47;;;;;;;26.28;55.19;94528.72;4897488;29;20792;-85
2022/06/25 05:16:01;;;;;;;4.40;3.97;;;;;;;26.56;55.22;94521.81;4897546;29;20192;-84
2022/06/25 05:18:28;;;;;;;4.95;4.47;;;;;;;26.77;55.02;94523.69;4897733;29;20197;-81
2022/06/25 05:20:57;;;;;;;7.03;3.85;;;;;;;26.99;55.01;94523.69;4897290;29;20232;-84
2022/06/25 05:23:23;;;;;;;8.98;4.32;;;;;;;27.31;54.89;94522.22;4897315;29;20196;-84
2022/06/25 05:25:50;;;;;;;6.90;4.10;;;;;;;27.71;55.00;94520.00;4898517;29;20204;-84
2022/06/25 05:28:17;;;;;;;8.68;4.05;;;;;;;28.23;55.06;94529.16;4898513;29;20192;-84
2022/06/25 05:30:44;;;;;;;4.78;4.13;;;;;;;28.78;54.44;94525.34;4897807;29;20193;-82
2022/06/25 05:33:11;;;;;;;8.35;4.70;;;;;;;29.39;53.93;94528.25;4897434;29;20197;-81
2022/06/25 05:35:38;;;;;;;6.53;4.05;;;;;;;29.95;52.57;94527.59;4897634;29;20228;-84
2022/06/25 05:38:07;;;;;;;5.90;4.22;;;;;;;30.45;50.86;94526.03;4897385;29;20202;-85
2022/06/25 05:40:35;;;;;;;6.05;4.32;;;;;;;30.85;49.47;94541.03;4897706;29;20192;-81
2022/06/25 05:43:02;;;;;;;6.18;4.55;;;;;;;31.14;48.58;94521.91;4897328;29;20204;-84
2022/06/25 05:45:30;;;;;;;8.68;3.72;;;;;;;31.46;48.15;94530.25;4897191;29;20588;-85
2022/06/25 05:47:57;;;;;;;5.43;3.83;;;;;;;31.88;47.20;94538.75;4897357;29;20200;-84
2022/06/25 05:50:24;;;;;;;5.38;3.80;;;;;;;32.25;46.78;94538.19;4896918;29;20673;-85
2022/06/25 05:52:51;;;;;;;5.38;3.85;;;;;;;32.67;46.19;94542.09;4897033;29;20204;-84
2022/06/25 05:55:19;;;;;;;6.88;4.18;;;;;;;33.15;46.09;94544.78;4896618;29;20239;-84
2022/06/25 05:57:46;;;;;;;10.70;3.92;;;;;;;33.67;45.26;94543.09;4897035;29;20200;-86
2022/06/25 06:00:14;;;;;;;4.35;3.55;;;;;;;34.20;44.20;94535.72;4896653;29;20248;-84
2022/06/25 06:02:42;;;;;;;5.43;3.53;;;;;;;34.81;43.13;94544.53;4896972;29;20240;-84
2022/06/25 06:05:09;;;;;;;6.95;3.30;;;;;;;35.37;42.20;94545.34;4897065;29;20196;-86
2022/06/25 06:07:36;;;;;;;4.68;3.08;;;;;;;35.92;41.16;94532.72;4896923;29;20201;-79
2022/06/25 06:10:04;;;;;;;7.00;3.42;;;;;;;36.54;40.27;94536.63;4896454;29;20204;-84
2022/06/25 06:12:32;;;;;;;8.45;3.72;;;;;;;37.11;39.36;94544.75;4896860;29;20196;-80
2022/06/25 06:14:59;;;;;;;6.07;3.20;;;;;;;37.62;38.26;94540.66;4896330;29;20235;-86
2022/06/25 06:17:26;;;;;;;7.47;3.30;;;;;;;38.20;37.46;94550.09;4896970;29;20228;-85
2022/06/25 06:19:53;;;;;;;7.35;2.92;;;;;;;38.71;36.52;94542.34;4896275;29;20236;-86
2022/06/25 06:22:21;;;;;;;3.72;2.72;;;;;;;39.20;35.53;94553.50;4896795;29;20278;-85
2022/06/25 06:24:47;;;;;;;7.15;2.63;;;;;;;39.67;34.69;94561.47;4896469;29;20669;-84
2022/06/25 06:27:14;;;;;;;3.97;2.92;;;;;;;40.11;33.94;94552.00;4896484;29;20202;-84
2022/06/25 06:29:43;;;;;;;4.03;2.63;;;;;;;40.54;33.48;94559.69;4896496;29;20196;-83
2022/06/25 06:32:10;;;;;;;3.83;2.78;;;;;;;40.95;32.54;94552.59;4896139;29;20196;-84
2022/06/25 06:34:37;;;;;;;3.55;2.83;;;;;;;41.31;32.03;94541.13;4896704;29;20222;-85
2022/06/25 06:37:04;;;;;;;7.43;2.60;;;;;;;41.67;31.08;94550.28;4895891;29;20196;-84
2022/06/25 06:39:31;;;;;;;3.83;2.53;;;;;;;42.06;31.08;94551.44;4896135;29;20195;-85
2022/06/25 06:41:58;;;;;;;3.80;2.25;;;;;;;42.37;30.36;94550.00;4896291;29;20199;-80
2022/06/25 06:44:25;;;;;;;4.35;2.63;;;;;;;42.72;30.35;94552.84;4896406;29;20191;-82
2022/06/25 06:46:53;;;;;;;7.32;2.88;;;;;;;43.00;29.81;94539.31;4895791;29;20227;-82
2022/06/25 06:49:20;;;;;;;2.65;2.42;;;;;;;43.31;29.07;94552.00;4895948;29;20203;-77
2022/06/25 06:51:47;;;;;;;2.75;2.55;;;;;;;43.54;29.02;94540.59;4895661;29;20687;-80
2022/06/25 06:54:14;;;;;;;3.97;2.33;;;;;;;43.84;28.56;94554.38;4895884;29;20302;-82
2022/06/25 06:56:41;;;;;;;4.10;2.83;;;;;;;44.16;28.47;94571.19;4896172;29;20194;-81
2022/06/25 06:59:09;;;;;;;3.55;2.65;;;;;;;44.41;27.58;94568.22;4896100;29;20206;-82
2022/06/25 07:01:36;;;;;;;4.07;2.67;;;;;;;44.65;27.75;94562.53;4896054;29;20235;-84
2022/06/25 07:04:04;;;;;;;3.58;3.28;;;;;;;44.88;27.04;94556.38;4896365;29;20192;-83
2022/06/25 07:06:31;;;;;;;4.80;3.10;;;;;;;45.09;26.97;94553.25;4898798;29;20219;-85
2022/06/25 07:08:58;;;;;;;5.10;2.80;;;;;;;45.32;26.72;94558.63;4897118;29;20222;-85
2022/06/25 07:11:31;;;;;;;3.72;2.58;;;;;;;45.44;26.32;94540.31;4898143;29;20735;-84
2022/06/25 07:13:59;;;;;;;4.47;2.97;;;;;;;45.65;26.62;94547.94;4897387;29;20190;-84
2022/06/25 07:16:26;;;;;;;5.25;2.88;;;;;;;45.82;26.22;94540.44;4896400;29;20200;-82
2022/06/25 07:18:55;;;;;;;3.85;3.03;;;;;;;46.05;25.73;94543.84;4895814;29;20203;-85
2022/06/25 07:21:24;;;;;;;3.38;3.08;;;;;;;46.19;25.81;94549.44;4895500;29;20235;-85
2022/06/25 07:23:50;;;;;;;6.70;3.00;;;;;;;46.36;25.75;94545.38;4895676;29;20207;-85
2022/06/25 07:26:18;;;;;;;4.40;2.65;;;;;;;46.46;25.58;94542.00;4896987;29;20199;-84
2022/06/25 07:28:45;;;;;;;5.95;3.33;;;;;;;46.60;24.98;94543.31;4896088;29;20191;-84
2022/06/25 07:31:12;;;;;;;3.35;2.90;;;;;;;46.70;24.85;94548.81;4896473;29;20188;-84
2022/06/25 07:33:39;;;;;;;4.45;3.08;;;;;;;46.78;24.51;94547.75;4895863;29;20218;-86
2022/06/25 07:36:07;;;;;;;5.05;3.10;;;;;;;46.83;24.95;94546.63;4895865;29;20790;-85
2022/06/25 07:38:35;;;;;;;6.38;3.10;;;;;;;46.90;24.41;94559.47;4895955;29;20576;-85
2022/06/25 07:41:02;;;;;;;6.57;3.45;;;;;;;46.95;24.80;94557.19;4896077;29;20204;-82
2022/06/25 07:43:29;;;;;;;4.40;3.53;;;;;;;47.00;24.60;94556.06;4895567;29;20568;-84
2022/06/25 07:45:57;;;;;;;4.22;3.75;;;;;;;47.03;24.28;94554.56;4896292;29;20192;-85
2022/06/25 07:48:24;;;;;;;18.77;3.65;;;;;;;47.05;24.36;94563.06;4895880;29;20199;-85
2022/06/25 07:53:36;;;;;;;4.18;3.20;;;;;;;47.07;24.54;94558.84;4899153;29;20708;-86
2022/06/25 07:56:05;;;;;;;6.82;3.42;;;;;;;47.07;24.30;94552.63;4896025;29;20231;-84
2022/06/25 07:58:32;;;;;;;3.72;3.33;;;;;;;47.04;24.05;94548.00;4896293;29;20191;-84
2022/06/25 08:00:59;;;;;;;7.75;3.42;;;;;;;47.01;23.87;94555.69;4896022;29;20184;-85
2022/06/25 08:03:26;;;;;;;3.50;3.20;;;;;;;46.95;24.09;94545.59;4896274;29;20200;-83
2022/06/25 08:05:53;;;;;;;5.55;4.07;;;;;;;46.95;24.38;94548.31;4895482;29;20200;-86
2022/06/25 08:08:20;;;;;;;4.40;3.58;;;;;;;46.90;23.81;94557.53;4895785;29;20200;-85
2022/06/25 08:10:49;;;;;;;7.45;4.07;;;;;;;46.85;24.21;94555.13;4895807;29;20212;-83
2022/06/25 08:13:16;;;;;;;6.63;3.63;;;;;;;46.80;24.34;94549.28;4897090;29;20188;-86
2022/06/25 08:15:43;;;;;;;5.15;3.35;;;;;;;46.74;24.30;94552.34;4895894;29;20237;-86
2022/06/25 08:18:10;;;;;;;4.85;3.20;;;;;;;46.68;24.49;94547.63;4895507;29;20200;-86
2022/06/25 08:20:37;;;;;;;4.13;3.58;;;;;;;46.60;24.02;94549.50;4897439;29;20231;-86
2022/06/25 08:23:04;;;;;;;4.10;3.80;;;;;;;46.51;24.39;94544.38;4898853;29;20192;-86
2022/06/25 08:25:30;;;;;;;8.57;3.97;;;;;;;46.34;24.51;94533.38;4899101;29;20200;-79
2022/06/25 08:27:59;;;;;;;5.40;3.70;;;;;;;46.32;23.98;94547.25;4899003;29;20192;-85
2022/06/25 08:30:26;;;;;;;5.28;3.80;;;;;;;46.22;24.52;94550.63;4898827;29;20199;-85
2022/06/25 08:32:54;;;;;;;5.57;3.97;;;;;;;46.12;24.23;94543.94;4898956;29;20196;-85
2022/06/25 08:35:21;;;;;;;5.07;3.88;;;;;;;45.95;24.54;94533.69;4899622;29;20231;-84
2022/06/25 08:37:50;;;;;;;6.13;3.95;;;;;;;45.90;24.70;94540.19;4899682;29;20195;-82
2022/06/25 08:40:19;;;;;;;4.97;3.72;;;;;;;45.77;24.84;94536.09;4901190;29;20273;-87
2022/06/25 08:42:48;;;;;;;6.35;4.13;;;;;;;45.68;24.38;94546.41;4899051;29;20223;-85
2022/06/25 08:45:17;;;;;;;5.20;4.03;;;;;;;45.49;24.39;94542.69;4899051;29;20272;-86
2022/06/25 08:47:45;;;;;;;5.30;3.80;;;;;;;45.40;24.59;94549.47;4899359;29;20247;-86
2022/06/25 08:50:14;;;;;;;8.20;4.10;;;;;;;45.31;24.42;94552.44;4899056;29;20204;-85
2022/06/25 08:52:44;;;;;;;6.50;4.25;;;;;;;45.18;25.21;94561.88;4899021;29;20219;-81
2022/06/25 08:55:16;;;;;;;6.10;4.63;;;;;;;45.02;25.09;94559.28;4898563;29;20228;-85
2022/06/25 08:57:43;;;;;;;5.72;4.28;;;;;;;44.88;24.89;94553.66;4898376;29;20215;-84
2022/06/25 09:00:22;;;;;;;7.03;3.58;;;;;;;44.76;25.08;94558.09;4898592;29;20184;-86
2022/06/25 09:02:52;;;;;;;5.28;4.60;;;;;;;44.63;25.57;94564.78;4898846;29;20282;-85
2022/06/25 09:05:25;;;;;;;7.85;3.95;;;;;;;44.48;25.79;94558.34;4899290;29;20635;-86
2022/06/25 09:07:54;;;;;;;5.30;4.50;;;;;;;44.33;25.30;94553.81;4899057;29;20842;-85
2022/06/25 09:10:21;;;;;;;4.85;4.30;;;;;;;44.15;26.12;94566.16;4898828;29;20556;-85
2022/06/25 09:12:52;;;;;;;4.65;4.22;;;;;;;44.00;25.70;94560.47;4898911;29;20196;-85
2022/06/25 09:15:20;;;;;;;5.28;4.15;;;;;;;43.79;25.78;94547.31;4900243;29;20224;-85
2022/06/25 09:17:48;;;;;;;6.82;4.32;;;;;;;43.71;26.03;94560.97;4898986;29;20612;-84
2022/06/25 09:20:17;;;;;;;5.85;4.18;;;;;;;43.57;26.35;94556.84;4897836;29;20231;-85
2022/06/25 09:22:54;;;;;;;5.38;4.13;;;;;;;43.39;26.16;94552.94;4896912;29;20200;-86
2022/06/25 09:25:25;;;;;;;5.07;4.57;;;;;;;43.28;26.61;94560.00;4896792;29;20191;-87
2022/06/25 09:27:52;;;;;;;6.82;4.90;;;;;;;43.13;26.81;94556.19;4896805;29;20192;-86
2022/06/25 09:30:20;;;;;;;4.68;4.20;;;;;;;42.99;26.91;94553.13;4899405;29;20242;-85
2022/06/25 09:32:49;;;;;;;7.22;4.78;;;;;;;42.88;26.73;94557.44;4908029;29;20233;-86
2022/06/25 09:35:31;;;;;;;5.32;4.82;;;;;;;42.68;27.28;94549.28;4915493;29;20221;-85
2022/06/25 09:38:06;;;;;;;5.68;4.72;;;;;;;42.58;27.34;94560.53;4914946;29;20639;-86
2022/06/25 09:40:34;;;;;;;9.00;4.57;;;;;;;42.46;26.93;94557.91;4916390;29;20651;-84
2022/06/25 09:43:11;;;;;;;5.43;4.65;;;;;;;42.25;27.19;94537.38;4916034;29;20187;-85
2022/06/25 09:45:38;;;;;;;8.25;4.95;;;;;;;42.22;27.46;94556.88;4915793;29;20667;-86
2022/06/25 09:48:09;;;;;;;8.27;4.90;;;;;;;42.05;27.28;94541.78;4912981;29;20667;-85
2022/06/25 09:50:37;;;;;;;8.57;5.30;;;;;;;41.94;27.54;94546.09;4915799;29;20308;-82
2022/06/25 09:53:05;;;;;;;7.57;5.00;;;;;;;41.84;27.50;94544.69;4915671;29;20226;-86
2022/06/25 09:55:37;;;;;;;5.63;4.72;;;;;;;41.73;28.07;94543.56;4916096;29;20219;-86
2022/06/25 09:58:05;;;;;;;5.65;4.68;;;;;;;41.61;27.93;94538.97;4915592;29;20356;-86
2022/06/25 10:00:33;;;;;;;10.23;5.75;;;;;;;41.46;28.14;94534.31;4916127;29;20230;-80
2022/06/25 10:03:00;;;;;;;7.55;5.45;;;;;;;41.34;28.41;94537.75;4915514;29;20558;-85
2022/06/25 10:05:32;;;;;;;8.20;4.93;;;;;;;41.16;28.50;94539.13;4915698;29;20191;-86
2022/06/25 10:08:01;;;;;;;6.82;5.10;;;;;;;40.99;28.27;94534.75;4916682;29;20192;-81
2022/06/25 10:10:31;;;;;;;7.93;5.05;;;;;;;40.85;28.42;94537.75;4915863;29;20223;-86
2022/06/25 10:12:58;;;;;;;8.10;5.22;;;;;;;40.72;28.52;94543.41;4915349;29;20743;-86
2022/06/25 10:15:25;;;;;;;7.90;5.55;;;;;;;40.58;28.74;94549.06;4915057;29;20215;-85
2022/06/25 10:17:55;;;;;;;8.23;4.90;;;;;;;40.42;29.18;94538.19;4914502;29;20263;-84
2022/06/25 10:20:24;;;;;;;9.60;5.25;;;;;;;40.21;29.23;94524.81;4874635;29;1195966;-83
2022/06/25 10:22:52;;;;;;;8.10;5.35;;;;;;;40.11;29.04;94539.44;4915842;29;20208;-85
2022/06/25 10:25:25;;;;;;;8.13;5.13;;;;;;;39.98;29.34;94531.59;4915289;29;20255;-87
2022/06/25 10:28:05;;;;;;;7.13;5.55;;;;;;;39.81;29.30;94521.81;4915408;29;20194;-78
2022/06/25 10:30:54;;;;;;;6.70;5.38;;;;;;;39.67;29.47;94505.25;4916036;29;20199;-85
2022/06/25 10:33:23;;;;;;;8.30;4.78;;;;;;;39.57;29.60;94509.84;4858518;29;20675;-84
2022/06/25 10:35:51;;;;;;;6.63;5.28;;;;;;;39.34;29.84;94487.97;4860123;29;20229;-85
2022/06/25 10:38:22;;;;;;;8.85;5.00;;;;;;;39.36;29.89;94506.38;4859251;29;20202;-84
2022/06/25 10:40:58;;;;;;;5.90;4.45;;;;;;;39.23;30.17;94505.50;4858379;29;20193;-85
2022/06/25 10:43:45;;;;;;;12.60;5.28;;;;;;;39.17;30.26;94498.75;4857126;29;20198;-85
2022/06/25 10:46:27;;;;;;;11.27;4.78;;;;;;;39.04;30.25;94486.41;4858820;29;20206;-87
2022/06/25 10:48:58;;;;;;;7.50;5.05;;;;;;;38.92;30.65;94489.75;4860364;29;20190;-81
2022/06/25 10:51:30;;;;;;;9.18;5.55;;;;;;;38.87;30.73;94496.06;4860182;29;20697;-86
2022/06/25 10:53:57;;;;;;;9.70;5.45;;;;;;;38.78;30.81;94495.31;4858504;29;20251;-85
2022/06/25 10:56:32;;;;;;;8.50;4.53;;;;;;;38.68;30.99;94492.94;4857303;29;20229;-86
2022/06/25 10:59:00;;;;;;;13.43;5.28;;;;;;;38.58;30.76;94480.72;4857752;29;20580;-86
2022/06/25 11:01:32;;;;;;;10.20;5.13;;;;;;;38.52;31.04;94482.03;4857506;29;20197;-86
2022/06/25 11:04:12;;;;;;;7.63;5.22;;;;;;;38.34;31.06;94473.28;4858073;29;20197;-85
2022/06/25 11:06:40;;;;;;;8.80;4.93;;;;;;;38.34;31.23;94475.94;4860200;29;20197;-85
2022/06/25 11:09:13;;;;;;;7.30;4.93;;;;;;;38.31;31.39;94473.91;4860551;29;20205;-79
2022/06/25 11:11:46;;;;;;;8.10;5.07;;;;;;;38.27;31.51;94470.28;4923623;29;20194;-78
2022/06/25 11:14:15;;;;;;;9.00;5.05;;;;;;;38.18;31.44;94458.81;4934421;29;20223;-78
2022/06/25 11:16:43;;;;;;;6.72;5.00;;;;;;;38.20;31.44;94461.94;4933120;29;20220;-85
2022/06/25 11:19:10;;;;;;;7.07;4.45;;;;;;;38.12;31.63;94452.84;4933501;29;20199;-83
2022/06/25 11:21:38;;;;;;;8.93;4.95;;;;;;;38.15;31.55;94460.22;4933692;29;20234;-79
2022/06/25 11:24:07;;;;;;;9.45;4.80;;;;;;;38.11;31.87;94461.19;4932674;29;20196;-78
2022/06/25 11:29:22;;;;;;;6.30;5.68;;;;;;;37.97;32.02;94452.59;4917557;29;20194;-84
2022/06/25 11:31:51;;;;;;;10.52;5.43;;;;;;;37.88;32.02;94452.59;4918313;29;20199;-85
2022/06/25 11:34:23;;;;;;;14.13;5.93;;;;;;;37.81;32.16;94439.69;4916476;29;20188;-83
2022/06/25 11:37:02;;;;;;;7.65;5.18;;;;;;;37.79;32.26;94428.53;4917696;29;20651;-86
2022/06/25 11:39:29;;;;;;;9.13;5.00;;;;;;;37.81;32.29;94431.66;4916260;29;20195;-84
2022/06/25 11:41:56;;;;;;;6.50;4.72;;;;;;;37.84;32.42;94432.94;4916378;29;20286;-86
2022/06/25 11:44:25;;;;;;;9.05;4.97;;;;;;;37.88;32.44;94431.22;4915858;29;20187;-86
2022/06/25 11:46:56;;;;;;;10.70;4.85;;;;;;;37.81;32.35;94412.97;4915878;29;20192;-87
2022/06/25 11:49:23;;;;;;;8.95;5.20;;;;;;;37.86;32.35;94423.53;4915077;29;20199;-87
2022/06/25 11:51:52;;;;;;;7.13;5.18;;;;;;;37.87;32.50;94427.00;4916602;29;20191;-89
2022/06/25 11:54:23;;;;;;;15.52;6.05;;;;;;;37.74;32.49;94410.03;4918503;29;20188;-84